Time;durP1;ratioP1;P1;durP2;ratioP2;P2;SDS_P1;SDS_P2;PMS_P1;PMS_P2;Temp;Humidity;BMP_temperature;BMP_pressure;BME280_temperature;BME280_humidity;BME280_pressure;Samples;Min_cycle;Max_cycle;Signal;HPM_P1;HPM_P2
2022/06/09 01:04:02;;;;;;;4.38;1.40;;;15.20;99.90;;;;;;5054729;28;20029;-89
2022/06/09 01:06:34;;;;;;;6.90;2.05;;;15.20;99.90;;;;;;5046091;28;20022;-89
2022/06/09 01:09:14;;;;;;;2.15;1.25;;;15.10;99.90;;;;;;5053421;28;20064;-90
2022/06/09 01:11:41;;;;;;;5.70;1.60;;;15.10;99.90;;;;;;5049314;28;20026;-88
2022/06/09 01:14:08;;;;;;;4.55;1.60;;;15.20;99.90;;;;;;5057214;28;20026;-89
2022/06/09 01:16:45;;;;;;;5.60;1.60;;;15.20;99.90;;;;;;5058705;28;20022;-89
2022/06/09 01:19:40;;;;;;;4.65;1.55;;;15.10;99.90;;;;;;5049357;28;20113;-89
2022/06/09 01:22:22;;;;;;;4.50;1.70;;;15.10;99.90;;;;;;5014506;28;20057;-90
2022/06/09 01:25:03;;;;;;;3.78;1.45;;;14.10;99.90;;;;;;5058272;28;20027;-90
2022/06/09 01:28:11;;;;;;;7.60;1.88;;;15.00;99.90;;;;;;5059505;28;20042;-89
2022/06/09 01:30:47;;;;;;;5.18;1.70;;;15.00;99.90;;;;;;5020522;28;20053;-90
2022/06/09 01:33:23;;;;;;;9.40;1.60;;;15.00;99.90;;;;;;5041445;28;20018;-90
2022/06/09 01:36:04;;;;;;;3.38;1.25;;;14.90;99.90;;;;;;5049004;28;20016;-91
2022/06/09 01:38:30;;;;;;;4.03;1.30;;;14.90;99.90;;;;;;5048641;28;20116;-89
2022/06/09 01:40:55;;;;;;;6.03;2.80;;;14.90;99.90;;;;;;5050736;28;20013;-91
2022/06/09 01:43:21;;;;;;;7.22;1.90;;;14.80;99.90;;;;;;5058962;28;20045;-88
2022/06/09 01:46:07;;;;;;;5.32;1.38;;;15.10;99.90;;;;;;5051435;28;20026;-89
2022/06/09 01:48:35;;;;;;;5.45;1.63;;;14.70;99.90;;;;;;5054249;28;20021;-90
2022/06/09 01:51:22;;;;;;;4.38;1.55;;;14.60;99.90;;;;;;5057928;28;20013;-89
2022/06/09 01:54:03;;;;;;;5.45;1.75;;;13.90;99.90;;;;;;5041802;28;20114;-90
2022/06/09 01:56:53;;;;;;;5.70;1.35;;;14.60;99.90;;;;;;5059146;28;20017;-89
2022/06/09 01:59:24;;;;;;;8.38;2.28;;;14.50;99.90;;;;;;5043004;28;20089;-87
2022/06/09 02:02:21;;;;;;;7.43;2.28;;;14.50;99.90;;;;;;5058071;28;20060;-91
2022/06/09 02:04:56;;;;;;;4.93;1.65;;;14.40;99.90;;;;;;5053431;28;20038;-89
2022/06/09 02:07:25;;;;;;;6.20;1.80;;;14.40;99.90;;;;;;5059403;28;20052;-89
2022/06/09 02:09:52;;;;;;;3.45;1.58;;;14.40;99.90;;;;;;5058327;28;20028;-89
2022/06/09 02:12:23;;;;;;;5.53;1.73;;;14.40;99.90;;;;;;5041690;28;20025;-88
2022/06/09 02:14:52;;;;;;;4.97;1.80;;;14.40;99.90;;;;;;5049478;28;20032;-88
2022/06/09 02:17:19;;;;;;;10.27;1.70;;;14.40;99.90;;;;;;5058590;28;20021;-87
2022/06/09 02:19:47;;;;;;;3.88;1.60;;;14.30;99.90;;;;;;5033805;28;20029;-90
2022/06/09 02:22:13;;;;;;;8.80;2.17;;;14.30;99.90;;;;;;5056178;28;20085;-90
2022/06/09 02:24:39;;;;;;;4.60;1.58;;;14.30;99.90;;;;;;5058678;28;20018;-89
2022/06/09 02:27:05;;;;;;;8.50;2.20;;;14.20;99.90;;;;;;5058271;28;20018;-90
2022/06/09 02:29:32;;;;;;;4.95;1.40;;;14.20;99.90;;;;;;5056610;28;20038;-89
2022/06/09 02:31:58;;;;;;;3.45;1.27;;;14.10;99.90;;;;;;5042449;28;20208;-90
2022/06/09 02:34:24;;;;;;;4.40;1.58;;;14.10;99.90;;;;;;5048031;28;20037;-88
2022/06/09 02:36:50;;;;;;;8.77;2.10;;;14.10;99.90;;;;;;5038786;28;20061;-90
2022/06/09 02:39:16;;;;;;;6.68;1.50;;;15.40;99.90;;;;;;5049378;28;20010;-87
2022/06/09 02:41:41;;;;;;;4.55;1.60;;;14.10;99.90;;;;;;5058209;28;20041;-88
2022/06/09 02:44:07;;;;;;;7.43;1.63;;;14.10;99.90;;;;;;5052583;28;20025;-89
2022/06/09 02:46:36;;;;;;;10.18;2.28;;;14.10;99.90;;;;;;5054969;28;20021;-89
2022/06/09 02:49:01;;;;;;;5.55;1.27;;;13.90;99.90;;;;;;5057662;28;20025;-88
2022/06/09 02:51:30;;;;;;;4.97;1.60;;;14.00;99.90;;;;;;5055701;28;20010;-89
2022/06/09 02:53:58;;;;;;;8.02;1.58;;;14.00;99.90;;;;;;5057767;28;20022;-89
2022/06/09 02:56:24;;;;;;;7.05;1.83;;;14.00;99.90;;;;;;5057268;28;20012;-90
2022/06/09 02:58:51;;;;;;;5.18;1.60;;;14.80;99.90;;;;;;5058243;28;20021;-88
2022/06/09 03:01:17;;;;;;;6.13;2.10;;;14.00;99.90;;;;;;5056635;28;20036;-91
2022/06/09 03:03:43;;;;;;;8.95;3.17;;;13.90;99.90;;;;;;5045452;28;20034;-89
2022/06/09 03:06:08;;;;;;;10.48;2.50;;;13.90;99.90;;;;;;5058903;28;20049;-89
2022/06/09 03:08:34;;;;;;;7.55;2.50;;;13.80;99.90;;;;;;5051497;28;20026;-87
2022/06/09 03:11:00;;;;;;;7.95;2.30;;;14.00;99.90;;;;;;5056167;28;20029;-87
2022/06/09 03:13:27;;;;;;;7.05;2.30;;;13.90;99.90;;;;;;5056009;28;20013;-91
2022/06/09 03:15:53;;;;;;;5.45;2.13;;;13.90;99.90;;;;;;5048615;28;20002;-89
2022/06/09 03:18:20;;;;;;;8.10;1.65;;;13.90;99.90;;;;;;5056367;28;20018;-89
2022/06/09 03:20:46;;;;;;;11.70;2.20;;;13.80;99.90;;;;;;5031057;28;20010;-88
2022/06/09 03:23:13;;;;;;;7.28;1.50;;;12.50;99.90;;;;;;5051100;28;20044;-89
2022/06/09 03:25:38;;;;;;;7.78;1.80;;;13.70;99.90;;;;;;5058148;28;20089;-89
2022/06/09 03:28:06;;;;;;;10.65;2.67;;;13.80;99.90;;;;;;5057790;28;20055;-89
2022/06/09 03:30:33;;;;;;;8.52;1.83;;;13.90;99.90;;;;;;5057673;28;20021;-89
2022/06/09 04:50:59;;;;;;;10.15;1.92;;;13.80;99.90;;;;;;5056096;28;20055;-91
2022/06/09 04:54:10;;;;;;;7.82;1.70;;;12.80;99.90;;;;;;5059314;28;20104;-90
2022/06/09 04:57:25;;;;;;;9.05;2.03;;;12.80;99.90;;;;;;5039890;28;20048;-91
2022/06/09 05:05:57;;;;;;;10.05;2.00;;;14.10;99.90;;;;;;5028891;28;20109;-91
2022/06/09 05:11:28;;;;;;;8.13;2.65;;;14.20;99.90;;;;;;5027738;28;20057;-91
2022/06/09 05:13:57;;;;;;;6.40;2.22;;;13.00;99.90;;;;;;5027793;28;20026;-90
2022/06/09 05:16:54;;;;;;;9.45;2.40;;;14.00;99.90;;;;;;5029882;28;20033;-89
2022/06/09 05:20:01;;;;;;;8.40;2.13;;;14.50;99.90;;;;;;5023693;28;20061;-90
2022/06/09 05:22:32;;;;;;;10.75;2.00;;;14.80;99.90;;;;;;5019760;28;20072;-92
2022/06/09 05:25:18;;;;;;;8.85;1.98;;;15.10;99.90;;;;;;5019013;28;20041;-91
2022/06/09 05:28:05;;;;;;;11.50;2.30;;;16.20;99.90;;;;;;5025927;28;20569;-90
2022/06/09 05:30:32;;;;;;;8.90;2.28;;;15.90;99.90;;;;;;5024603;28;20022;-90
2022/06/09 05:33:01;;;;;;;11.15;2.72;;;16.00;99.90;;;;;;5010822;28;20054;-90
2022/06/09 05:35:53;;;;;;;8.15;1.98;;;16.10;99.90;;;;;;5028202;28;20022;-88
2022/06/09 05:46:42;;;;;;;8.30;2.30;;;15.90;99.90;;;;;;5025338;28;20045;-90
2022/06/09 05:49:09;;;;;;;14.23;2.55;;;15.80;99.90;;;;;;5016872;28;20042;-90
2022/06/09 05:51:40;;;;;;;11.43;2.15;;;15.70;99.90;;;;;;4995186;28;20051;-91
2022/06/09 05:54:05;;;;;;;;;;;15.60;99.90;;;;;;5003717;28;20019;-88
2022/06/09 05:56:54;;;;;;;6.60;1.75;;;15.50;99.90;;;;;;5026365;28;19905;-89
2022/06/09 05:59:25;;;;;;;7.53;1.63;;;15.40;99.90;;;;;;5025536;28;20034;-88
2022/06/09 06:01:52;;;;;;;12.30;2.25;;;15.40;99.90;;;;;;5023857;28;20018;-91
2022/06/09 06:04:19;;;;;;;9.65;1.73;;;15.50;99.90;;;;;;5011716;28;20038;-90
2022/06/09 06:07:16;;;;;;;7.57;2.10;;;15.60;99.90;;;;;;5022042;28;20118;-90
2022/06/09 06:09:43;;;;;;;10.05;2.00;;;15.60;99.90;;;;;;5023710;28;20037;-90
2022/06/09 06:12:14;;;;;;;8.93;2.08;;;15.50;99.90;;;;;;5026509;28;20060;-90
2022/06/09 06:14:48;;;;;;;5.82;1.52;;;15.50;99.90;;;;;;5025165;28;20050;-89
2022/06/09 06:17:23;;;;;;;7.93;1.85;;;15.60;99.90;;;;;;5028807;28;20070;-88
2022/06/09 06:19:54;;;;;;;13.55;2.05;;;15.70;99.90;;;;;;5033041;28;20030;-88
2022/06/09 06:53:45;;;;;;;5.60;1.80;;;16.00;99.90;;;;;;5053077;28;20060;-89
2022/06/09 06:56:12;;;;;;;;;;;16.10;99.90;;;;;;5054781;28;20026;-90
2022/06/09 06:58:45;;;;;;;7.82;2.10;;;16.00;99.90;;;;;;5053657;28;19905;-89
2022/06/09 07:01:10;;;;;;;14.13;2.65;;;16.10;99.90;;;;;;5032814;28;20033;-90
2022/06/09 07:03:36;;;;;;;7.32;2.08;;;16.20;99.90;;;;;;5050590;28;20021;-89
2022/06/09 07:06:08;;;;;;;6.47;1.80;;;16.20;99.90;;;;;;5041559;28;20109;-90
2022/06/09 07:08:37;;;;;;;11.43;1.92;;;16.20;99.90;;;;;;5025651;28;20049;-90
2022/06/09 07:11:45;;;;;;;7.78;1.92;;;16.30;99.90;;;;;;5027618;28;20056;-88
2022/06/09 07:14:13;;;;;;;13.40;2.00;;;16.20;99.90;;;;;;5045046;28;20037;-88
2022/06/09 07:16:39;;;;;;;9.40;2.00;;;16.20;99.90;;;;;;5032886;28;20026;-90
2022/06/09 07:19:24;;;;;;;11.60;2.00;;;16.20;99.90;;;;;;5026765;28;20053;-88
2022/06/09 07:21:59;;;;;;;9.13;2.50;;;16.10;99.90;;;;;;5030419;28;20032;-89
2022/06/09 07:24:29;;;;;;;10.35;2.15;;;15.10;99.90;;;;;;5017779;28;20026;-88
2022/06/09 07:27:00;;;;;;;10.93;2.53;;;15.90;99.90;;;;;;5051127;28;20025;-89
2022/06/09 07:29:46;;;;;;;10.98;3.00;;;16.00;99.90;;;;;;5048612;28;20037;-86
2022/06/09 07:32:50;;;;;;;8.90;2.10;;;14.90;99.90;;;;;;5049500;28;20033;-91
2022/06/09 07:35:36;;;;;;;8.68;3.05;;;16.20;99.90;;;;;;5028442;28;20026;-89
2022/06/09 07:38:29;;;;;;;10.60;1.90;;;16.00;99.90;;;;;;5027850;28;20386;-88
2022/06/09 07:41:15;;;;;;;9.00;2.17;;;16.10;99.90;;;;;;5029660;28;20044;-88
2022/06/09 07:44:04;;;;;;;7.60;2.00;;;16.10;99.90;;;;;;5051911;28;20219;-89
2022/06/09 07:46:52;;;;;;;7.93;2.28;;;16.10;99.90;;;;;;5057980;28;20017;-91
2022/06/09 07:49:18;;;;;;;4.93;2.03;;;16.20;99.90;;;;;;5057413;28;20038;-89
2022/06/09 09:01:51;;;;;;;6.30;2.53;;;16.90;99.90;;;;;;5043684;28;20037;-89
2022/06/09 09:04:25;;;;;;;6.65;2.10;;;16.80;99.90;;;;;;5024886;28;20033;-91
2022/06/09 09:07:25;;;;;;;14.93;2.85;;;16.70;99.90;;;;;;5044107;28;20386;-90
2022/06/09 09:10:23;;;;;;;7.55;1.70;;;17.10;99.90;;;;;;5042721;28;20029;-89
2022/06/09 09:13:08;;;;;;;9.52;1.90;;;17.50;99.90;;;;;;5023331;28;20022;-90
2022/06/09 09:15:41;;;;;;;8.73;1.92;;;17.50;99.90;;;;;;5048836;28;20029;-88
2022/06/09 09:18:29;;;;;;;8.13;2.20;;;17.60;99.90;;;;;;5044314;28;20025;-87
2022/06/09 09:21:20;;;;;;;8.93;1.80;;;17.70;99.90;;;;;;5020982;28;20566;-89
2022/06/09 09:24:00;;;;;;;5.88;1.65;;;17.80;99.90;;;;;;5046475;28;20097;-88
2022/06/09 09:27:02;;;;;;;13.57;2.55;;;17.80;99.90;;;;;;5042106;28;20025;-87
2022/06/09 09:29:40;;;;;;;7.47;2.38;;;17.90;99.90;;;;;;5043317;28;20279;-91
2022/06/09 09:32:13;;;;;;;7.63;1.90;;;18.20;99.90;;;;;;5048718;28;20022;-90
2022/06/09 09:34:45;;;;;;;9.43;2.22;;;18.20;99.90;;;;;;5023086;28;20030;-91
2022/06/09 09:37:21;;;;;;;10.90;2.75;;;18.40;99.90;;;;;;5046205;28;20029;-89
2022/06/09 09:39:52;;;;;;;7.50;1.70;;;18.60;99.90;;;;;;5045040;28;20021;-89
2022/06/09 09:42:21;;;;;;;7.25;1.65;;;18.70;99.90;;;;;;5037991;28;20021;-91
2022/06/09 09:45:16;;;;;;;9.18;2.08;;;18.90;99.90;;;;;;5031430;28;20029;-89
2022/06/09 09:47:58;;;;;;;8.55;2.13;;;18.90;99.90;;;;;;5044101;28;20022;-89
2022/06/09 09:50:23;;;;;;;7.65;1.80;;;19.10;99.90;;;;;;5041924;28;20018;-90
2022/06/09 09:52:58;;;;;;;4.57;1.80;;;19.30;99.90;;;;;;5044274;28;20096;-91
2022/06/09 09:55:34;;;;;;;7.93;2.28;;;19.70;99.90;;;;;;5032983;28;20032;-89
2022/06/09 09:58:20;;;;;;;7.45;1.85;;;19.90;99.90;;;;;;5044603;28;20116;-90
2022/06/09 10:00:50;;;;;;;8.57;2.30;;;19.80;99.90;;;;;;5013650;28;20056;-88
2022/06/09 10:11:54;;;;;;;9.02;2.10;;;19.40;99.90;;;;;;5023809;28;20046;-90
2022/06/09 10:14:33;;;;;;;8.00;2.22;;;20.00;99.90;;;;;;5022932;28;20034;-91
2022/06/09 10:17:01;;;;;;;4.93;1.50;;;19.40;99.90;;;;;;4991611;28;20037;-89
2022/06/09 10:19:30;;;;;;;8.95;2.30;;;19.40;99.90;;;;;;5000851;28;20100;-90
2022/06/09 10:22:00;;;;;;;7.28;2.00;;;19.40;99.90;;;;;;5027684;28;20038;-88
2022/06/09 10:24:52;;;;;;;8.30;2.00;;;19.50;99.90;;;;;;5018325;28;20026;-89
2022/06/09 10:27:22;;;;;;;8.85;2.33;;;19.40;99.90;;;;;;5016601;28;20061;-91
2022/06/09 10:30:10;;;;;;;7.53;2.33;;;19.60;99.90;;;;;;5019232;28;20030;-90
2022/06/09 10:32:52;;;;;;;5.78;1.80;;;19.70;99.90;;;;;;5016601;28;20027;-90
2022/06/09 10:35:41;;;;;;;6.65;1.65;;;19.70;99.90;;;;;;5007926;28;20022;-90
2022/06/09 10:38:34;;;;;;;8.10;1.83;;;20.00;99.40;;;;;;4994337;28;20032;-89
2022/06/09 10:41:04;;;;;;;8.02;2.10;;;18.90;98.40;;;;;;5012778;28;20053;-88
2022/06/09 10:43:38;;;;;;;6.97;1.60;;;20.20;99.40;;;;;;5021269;28;20547;-89
2022/06/09 10:46:22;;;;;;;9.38;1.92;;;20.50;98.40;;;;;;5011030;28;20065;-89
2022/06/09 10:55:19;;;;;;;6.53;1.60;;;21.10;97.40;;;;;;5027224;28;20029;-89
2022/06/09 10:58:04;;;;;;;7.38;1.98;;;20.10;97.10;;;;;;5022446;28;20025;-89
2022/06/09 11:00:39;;;;;;;8.93;2.20;;;20.50;97.80;;;;;;5004407;28;20061;-89
2022/06/09 11:03:19;;;;;;;9.20;2.35;;;20.50;98.00;;;;;;5002111;28;20026;-89
2022/06/09 11:06:09;;;;;;;5.65;1.73;;;20.40;98.20;;;;;;5008930;28;20030;-90
2022/06/09 11:08:57;;;;;;;8.40;2.08;;;20.20;97.70;;;;;;5003452;28;20064;-90
2022/06/09 11:11:48;;;;;;;8.60;2.05;;;20.30;98.00;;;;;;5006086;28;20117;-90
2022/06/09 11:14:15;;;;;;;7.38;1.45;;;20.30;96.70;;;;;;5013336;28;20066;-90
2022/06/09 11:17:02;;;;;;;8.60;1.70;;;20.20;97.20;;;;;;5001831;28;20052;-90
2022/06/09 11:20:01;;;;;;;4.95;1.58;;;20.30;97.40;;;;;;5010549;28;20134;-91
2022/06/09 11:22:32;;;;;;;6.40;1.90;;;20.40;97.20;;;;;;5006943;28;20463;-90
2022/06/09 11:25:36;;;;;;;10.80;2.20;;;20.60;97.00;;;;;;5011391;28;20032;-89
2022/06/09 11:28:22;;;;;;;5.65;1.70;;;19.40;96.30;;;;;;5013358;28;20027;-91
2022/06/09 11:30:57;;;;;;;9.90;1.95;;;20.70;96.60;;;;;;5003715;28;20034;-92
2022/06/09 11:33:49;;;;;;;5.47;1.80;;;21.10;96.80;;;;;;5009770;28;20029;-90
2022/06/09 11:36:32;;;;;;;8.07;1.98;;;21.30;96.00;;;;;;4987410;28;20133;-89
2022/06/09 11:39:21;;;;;;;8.38;1.58;;;21.30;95.70;;;;;;5010074;28;20034;-89
2022/06/09 11:41:55;;;;;;;6.25;1.40;;;21.30;93.40;;;;;;5005265;28;20029;-90
2022/06/09 11:44:28;;;;;;;9.25;1.52;;;21.20;93.60;;;;;;5008449;28;20082;-91
2022/06/09 11:46:58;;;;;;;9.50;2.10;;;20.00;92.90;;;;;;5003902;28;20026;-91
2022/06/09 11:49:27;;;;;;;8.65;1.77;;;21.10;92.80;;;;;;5001907;28;20053;-90
2022/06/09 11:51:53;;;;;;;7.68;1.75;;;21.10;92.80;;;;;;5005032;28;20022;-89
2022/06/09 11:54:34;;;;;;;7.43;1.67;;;21.30;93.10;;;;;;4993406;28;20026;-88
2022/06/09 11:57:25;;;;;;;4.07;1.48;;;21.50;93.00;;;;;;4999768;28;20038;-91
2022/06/09 12:00:02;;;;;;;9.00;2.00;;;21.30;93.00;;;;;;5010943;28;20038;-91
2022/06/09 12:02:49;;;;;;;5.65;1.42;;;22.80;93.50;;;;;;5005785;28;20049;-90
2022/06/09 12:05:22;;;;;;;5.82;1.40;;;21.30;93.30;;;;;;4991618;28;20080;-90
2022/06/09 12:08:22;;;;;;;7.38;1.75;;;21.20;93.30;;;;;;5002621;28;20400;-90
2022/06/09 12:11:02;;;;;;;7.68;1.55;;;21.20;93.50;;;;;;5020542;28;20034;-89
2022/06/09 12:14:03;;;;;;;13.82;2.10;;;21.10;93.40;;;;;;4999972;28;20030;-90
2022/06/09 12:16:41;;;;;;;7.35;1.52;;;20.90;93.20;;;;;;5008549;28;20030;-88
2022/06/09 12:19:57;;;;;;;9.07;1.77;;;20.90;93.10;;;;;;5015015;28;20041;-86
2022/06/09 12:22:44;;;;;;;12.15;2.40;;;21.00;93.10;;;;;;4925926;29;20059;-89
2022/06/09 12:25:10;;;;;;;9.35;4.45;;;21.20;92.90;;;;;;4939468;28;20020;-91
2022/06/09 12:27:42;;;;;;;5.28;1.85;;;21.70;92.60;;;;;;5020912;28;20113;-91
2022/06/09 12:30:26;;;;;;;8.88;2.78;;;22.10;91.70;;;;;;5005212;28;20033;-90
2022/06/09 12:33:11;;;;;;;5.18;1.70;;;22.30;91.00;;;;;;5003433;28;20022;-88
2022/06/09 12:35:53;;;;;;;9.43;3.05;;;22.30;91.20;;;;;;4995275;28;20030;-88
2022/06/09 12:38:42;;;;;;;7.03;1.90;;;22.40;91.20;;;;;;5001122;28;20033;-89
2022/06/09 12:41:28;;;;;;;7.95;1.88;;;22.60;90.30;;;;;;5003463;28;20040;-89
2022/06/09 12:43:59;;;;;;;12.60;4.53;;;22.60;89.70;;;;;;4997668;28;20041;-88
2022/06/09 12:46:28;;;;;;;6.47;1.80;;;22.50;89.60;;;;;;5007432;28;20034;-91
2022/06/09 12:48:55;;;;;;;6.47;1.33;;;22.80;86.40;;;;;;4989456;28;20098;-87
2022/06/09 12:51:25;;;;;;;7.72;1.90;;;21.80;84.20;;;;;;4996403;28;20032;-89
2022/06/09 12:54:04;;;;;;;6.80;1.70;;;21.60;84.40;;;;;;5016504;28;20501;-89
2022/06/09 12:56:43;;;;;;;5.97;1.50;;;21.40;85.70;;;;;;5003106;28;20037;-88
2022/06/09 12:59:20;;;;;;;9.05;1.83;;;21.40;85.80;;;;;;4997134;28;20026;-89
2022/06/09 13:02:18;;;;;;;8.25;1.77;;;21.30;86.30;;;;;;4999549;28;20034;-90
2022/06/09 13:04:55;;;;;;;6.15;1.55;;;21.40;85.60;;;;;;5008449;28;20034;-89
2022/06/09 13:07:25;;;;;;;9.43;1.70;;;21.40;85.80;;;;;;5014788;28;20022;-89
2022/06/09 13:10:18;;;;;;;8.18;1.88;;;21.40;85.70;;;;;;5019273;28;20034;-90
2022/06/09 13:12:51;;;;;;;5.63;1.80;;;21.50;86.20;;;;;;4998394;28;20062;-92
2022/06/09 13:15:37;;;;;;;5.03;1.90;;;21.60;86.60;;;;;;5000591;28;20034;-89
2022/06/09 13:18:17;;;;;;;4.47;1.35;;;21.70;86.40;;;;;;5010034;28;20022;-91
2022/06/09 13:20:55;;;;;;;4.00;1.40;;;21.70;83.70;;;;;;5005880;28;20021;-90
2022/06/09 13:23:21;;;;;;;4.22;1.10;;;21.80;82.60;;;;;;5000069;28;20030;-90
2022/06/09 13:25:49;;;;;;;6.10;1.42;;;21.80;85.80;;;;;;5000491;28;20053;-90
2022/06/09 13:28:30;;;;;;;6.38;1.60;;;21.90;89.20;;;;;;5010947;28;20026;-90
2022/06/09 13:30:58;;;;;;;7.38;2.55;;;21.90;89.90;;;;;;5016550;28;20022;-90
2022/06/09 13:33:59;;;;;;;8.38;1.58;;;22.00;89.10;;;;;;5005218;28;20033;-88
2022/06/09 13:36:35;;;;;;;7.10;1.70;;;21.80;88.60;;;;;;4975098;28;20034;-88
2022/06/09 13:39:32;;;;;;;8.50;1.52;;;21.80;89.50;;;;;;5013563;28;20037;-88
2022/06/09 13:42:06;;;;;;;4.78;1.40;;;20.40;89.80;;;;;;5008655;28;20022;-90
2022/06/09 13:44:40;;;;;;;5.60;1.55;;;21.60;90.80;;;;;;5024975;28;20026;-90
2022/06/09 13:47:20;;;;;;;5.97;1.60;;;21.40;90.90;;;;;;5009295;28;20029;-88
2022/06/09 13:49:57;;;;;;;8.13;1.33;;;21.40;91.00;;;;;;4999763;28;20027;-89
2022/06/09 13:52:35;;;;;;;6.68;1.48;;;21.50;90.60;;;;;;5013288;28;20026;-89
2022/06/09 13:55:02;;;;;;;7.70;2.72;;;21.60;90.20;;;;;;5014003;28;20022;-89
2022/06/09 13:57:35;;;;;;;4.82;1.25;;;21.70;90.00;;;;;;5014311;28;20090;-88
2022/06/09 14:00:03;;;;;;;5.45;1.42;;;21.70;90.10;;;;;;4991056;28;20026;-88
2022/06/09 14:02:52;;;;;;;4.50;1.40;;;21.50;90.10;;;;;;5007402;28;20022;-89
2022/06/09 14:05:18;;;;;;;5.82;1.67;;;21.50;90.00;;;;;;5006679;28;20562;-88
2022/06/09 14:07:43;;;;;;;3.83;1.42;;;21.40;90.20;;;;;;5004660;28;20026;-88
2022/06/09 14:10:20;;;;;;;4.50;1.33;;;21.30;90.80;;;;;;4992524;28;20072;-88
2022/06/09 14:12:46;;;;;;;7.40;1.45;;;21.40;90.60;;;;;;5003111;28;20018;-89
2022/06/09 14:15:12;;;;;;;6.28;2.40;;;21.50;90.20;;;;;;5003415;28;20468;-88
2022/06/09 14:17:38;;;;;;;6.57;1.65;;;21.60;90.80;;;;;;4988579;28;20037;-90
2022/06/09 14:20:05;;;;;;;6.55;1.52;;;21.60;90.70;;;;;;4993407;28;20128;-88
2022/06/09 14:22:31;;;;;;;7.32;1.98;;;21.60;90.60;;;;;;4980399;28;20125;-87
2022/06/09 14:24:56;;;;;;;3.30;1.30;;;21.60;90.80;;;;;;5003215;28;20448;-88
2022/06/09 14:27:22;;;;;;;4.97;0.93;;;21.60;90.10;;;;;;5011356;28;20049;-89
2022/06/09 14:29:48;;;;;;;4.60;1.05;;;21.70;88.80;;;;;;5008433;28;20076;-90
2022/06/09 14:32:20;;;;;;;7.40;2.03;;;21.80;89.50;;;;;;5004631;28;20094;-90
2022/06/09 14:34:46;;;;;;;6.18;2.55;;;22.00;88.40;;;;;;5000047;28;20451;-90
2022/06/09 14:37:13;;;;;;;7.65;2.40;;;22.10;87.80;;;;;;5000546;28;20044;-89
2022/06/09 14:39:39;;;;;;;6.20;1.40;;;22.20;87.20;;;;;;5004797;28;20048;-89
2022/06/09 14:42:12;;;;;;;4.03;1.33;;;22.10;85.40;;;;;;5004846;28;20571;-88
2022/06/09 14:44:40;;;;;;;7.47;1.40;;;22.30;84.70;;;;;;5000807;28;20498;-87
2022/06/09 14:47:12;;;;;;;6.03;1.80;;;21.10;81.70;;;;;;5018804;28;20087;-88
2022/06/09 14:49:37;;;;;;;6.22;2.15;;;22.30;83.60;;;;;;5007176;28;20033;-91
2022/06/09 14:52:03;;;;;;;5.82;1.42;;;22.50;83.30;;;;;;4987446;28;20026;-90
2022/06/09 14:54:29;;;;;;;4.60;1.23;;;22.50;80.50;;;;;;5003719;28;20033;-88
2022/06/09 14:56:56;;;;;;;6.45;1.75;;;22.40;81.50;;;;;;5004056;28;20033;-90
2022/06/09 14:59:22;;;;;;;6.22;1.88;;;22.40;80.50;;;;;;4993281;28;20022;-91
2022/06/09 15:01:47;;;;;;;5.80;1.30;;;22.30;79.00;;;;;;4987657;28;20058;-89
2022/06/09 15:04:13;;;;;;;5.70;1.58;;;21.70;79.20;;;;;;5004704;28;20026;-89
2022/06/09 15:06:39;;;;;;;5.75;1.60;;;22.40;79.00;;;;;;5006994;28;20034;-88
2022/06/09 15:09:06;;;;;;;4.18;1.17;;;22.40;78.70;;;;;;5007202;28;20034;-89
2022/06/09 15:11:33;;;;;;;6.47;1.70;;;22.40;74.50;;;;;;5023334;28;20081;-89
2022/06/09 15:13:59;;;;;;;3.25;1.20;;;22.40;75.20;;;;;;4988999;28;20045;-90
2022/06/09 15:16:28;;;;;;;4.85;1.42;;;22.40;76.60;;;;;;4998963;28;20030;-89
2022/06/09 15:18:55;;;;;;;6.77;1.40;;;22.40;77.20;;;;;;4990792;28;20134;-91
2022/06/09 15:21:22;;;;;;;6.88;2.20;;;22.40;77.20;;;;;;4984756;28;20093;-89
2022/06/09 15:23:49;;;;;;;5.22;1.40;;;22.50;76.80;;;;;;4995452;28;20030;-90
2022/06/09 15:26:19;;;;;;;7.28;1.77;;;22.60;76.50;;;;;;5002191;28;20030;-90
2022/06/09 15:28:46;;;;;;;5.57;2.33;;;22.60;76.50;;;;;;4994187;28;20042;-90
2022/06/09 15:31:11;;;;;;;6.07;2.03;;;22.70;75.30;;;;;;5005423;28;20015;-89
2022/06/09 15:33:37;;;;;;;8.15;3.47;;;22.70;76.00;;;;;;5021788;28;20036;-91
2022/06/09 15:36:03;;;;;;;5.85;2.00;;;22.70;77.20;;;;;;5017345;28;20038;-88
2022/06/09 15:38:29;;;;;;;5.68;2.05;;;22.70;75.80;;;;;;4986721;28;20480;-86
2022/06/09 15:40:55;;;;;;;5.30;1.88;;;22.80;75.60;;;;;;5006082;28;20056;-90
2022/06/09 15:43:20;;;;;;;6.10;2.30;;;22.70;75.90;;;;;;5004955;28;20041;-88
2022/06/09 15:45:50;;;;;;;7.40;2.10;;;22.80;75.40;;;;;;5001074;28;20548;-89
2022/06/09 15:48:19;;;;;;;7.43;1.70;;;22.70;75.70;;;;;;4997266;28;20038;-89
2022/06/09 15:50:46;;;;;;;7.65;2.10;;;22.70;76.60;;;;;;4995588;28;20045;-87
2022/06/09 15:53:12;;;;;;;7.75;2.75;;;22.50;75.50;;;;;;5000235;28;20392;-88
2022/06/09 15:55:40;;;;;;;9.23;1.80;;;22.90;76.10;;;;;;5012605;28;20023;-88
2022/06/09 15:58:07;;;;;;;10.77;2.80;;;22.90;76.70;;;;;;4994950;28;20496;-90
2022/06/09 16:00:34;;;;;;;7.07;2.25;;;22.90;76.80;;;;;;4997061;28;20031;-89
2022/06/09 16:03:00;;;;;;;4.72;1.65;;;22.90;75.60;;;;;;4997282;28;20427;-89
2022/06/09 16:05:28;;;;;;;8.50;3.47;;;22.70;75.30;;;;;;4996813;28;20049;-87
2022/06/09 16:08:00;;;;;;;14.10;4.53;;;22.70;76.00;;;;;;4991584;28;20038;-89
2022/06/09 16:10:38;;;;;;;8.30;2.97;;;22.70;75.60;;;;;;5019259;28;20030;-91
2022/06/09 16:13:04;;;;;;;8.18;3.63;;;22.70;75.40;;;;;;5000836;28;20026;-88
2022/06/09 16:15:31;;;;;;;5.40;1.42;;;22.60;75.50;;;;;;4986462;28;20113;-89
2022/06/09 16:17:57;;;;;;;9.07;3.15;;;22.70;75.20;;;;;;5019305;28;20037;-90
2022/06/09 16:20:30;;;;;;;13.93;5.47;;;22.80;75.50;;;;;;5001989;28;20025;-90
2022/06/09 16:22:55;;;;;;;9.48;3.78;;;22.80;75.10;;;;;;5002295;28;20423;-89
2022/06/09 16:25:21;;;;;;;8.13;1.60;;;22.90;75.70;;;;;;5002546;28;20026;-89
2022/06/09 16:27:48;;;;;;;5.85;1.52;;;22.90;74.60;;;;;;5009388;28;20022;-91
2022/06/09 16:30:16;;;;;;;6.28;1.40;;;22.90;74.50;;;;;;4997164;28;20030;-89
2022/06/09 16:32:41;;;;;;;7.43;1.70;;;22.90;73.60;;;;;;4983412;28;20022;-88
2022/06/09 16:35:08;;;;;;;6.10;1.60;;;22.90;73.80;;;;;;5019028;28;20176;-89
2022/06/09 16:37:34;;;;;;;7.50;1.80;;;22.80;74.30;;;;;;4997931;28;20100;-88
2022/06/09 16:40:00;;;;;;;5.65;2.10;;;23.00;73.50;;;;;;5001311;28;20036;-89
2022/06/09 16:42:26;;;;;;;6.65;2.40;;;23.10;74.20;;;;;;5000546;28;20061;-89
2022/06/09 16:44:52;;;;;;;9.75;1.90;;;23.20;75.50;;;;;;5014220;28;20029;-90
2022/06/09 16:47:17;;;;;;;5.63;1.50;;;22.30;75.30;;;;;;5004583;28;20037;-90
2022/06/09 16:49:44;;;;;;;11.57;2.15;;;23.30;76.40;;;;;;5023441;28;20038;-90
2022/06/09 16:52:11;;;;;;;9.02;2.03;;;;;;;;;;5020690;28;20041;-88
2022/06/09 16:54:37;;;;;;;8.80;1.90;;;;;;;;;;5017489;28;20006;-90
2022/06/09 16:57:04;;;;;;;7.72;2.10;;;23.20;76.60;;;;;;5015056;28;20033;-90
2022/06/09 16:59:29;;;;;;;7.38;1.85;;;23.20;77.10;;;;;;5013173;28;20089;-89
2022/06/09 17:01:56;;;;;;;4.75;1.70;;;;;;;;;;5014099;28;20034;-90
2022/06/09 17:04:22;;;;;;;9.32;1.90;;;23.20;75.70;;;;;;5019505;28;20022;-88
2022/06/09 17:06:49;;;;;;;6.13;1.50;;;23.10;77.00;;;;;;5009401;28;20037;-89
2022/06/09 17:09:15;;;;;;;5.30;1.70;;;23.20;76.80;;;;;;4990273;28;20057;-88
2022/06/09 17:11:41;;;;;;;6.95;2.00;;;23.30;76.90;;;;;;5002561;28;20030;-88
2022/06/09 17:14:09;;;;;;;7.53;2.40;;;23.40;76.40;;;;;;5006859;28;20487;-88
2022/06/09 17:16:35;;;;;;;9.20;2.10;;;23.40;77.20;;;;;;5032363;28;20053;-88
2022/06/09 17:19:05;;;;;;;8.85;1.70;;;23.20;76.30;;;;;;5013515;28;20029;-89
2022/06/09 17:21:31;;;;;;;7.50;2.05;;;23.20;76.40;;;;;;5008034;28;20022;-89
2022/06/09 17:23:58;;;;;;;6.60;2.35;;;;;;;;;;5016683;28;20034;-90
2022/06/09 17:26:24;;;;;;;8.95;4.20;;;23.20;75.50;;;;;;5008146;28;20350;-91
2022/06/09 17:28:51;;;;;;;10.40;4.72;;;22.00;74.70;;;;;;5019868;28;20026;-88
2022/06/09 17:31:17;;;;;;;6.78;1.67;;;23.30;75.20;;;;;;4990287;28;20025;-89
2022/06/09 17:33:44;;;;;;;8.73;2.25;;;23.20;75.20;;;;;;4995817;28;20026;-91
2022/06/09 17:36:10;;;;;;;7.50;2.67;;;23.20;75.60;;;;;;5015396;28;20319;-89
2022/06/09 17:38:36;;;;;;;6.90;1.90;;;23.20;75.70;;;;;;5001785;28;20093;-89
2022/06/09 17:41:02;;;;;;;6.90;2.15;;;;;;;;;;5013360;28;20037;-91
2022/06/09 17:43:28;;;;;;;6.30;1.77;;;;;;;;;;5007635;28;20029;-91
2022/06/09 17:45:54;;;;;;;6.78;2.00;;;;;;;;;;4996618;28;20531;-89
2022/06/09 17:48:20;;;;;;;13.63;2.60;;;23.10;76.40;;;;;;5002374;28;20025;-89
2022/06/09 17:50:49;;;;;;;7.68;2.63;;;23.00;77.80;;;;;;5008951;28;20022;-90
2022/06/09 17:53:16;;;;;;;7.78;2.80;;;22.50;78.30;;;;;;5007044;28;20026;-92
2022/06/09 17:55:42;;;;;;;5.93;1.70;;;22.30;77.50;;;;;;5009354;28;20550;-91
2022/06/09 17:58:09;;;;;;;6.35;2.30;;;22.20;78.70;;;;;;5006495;28;20034;-88